首页
METAR-TAF:

METAR-TAF

机场 :

素叻他尼機場

素叻他尼, 泰国

纬度: 09-07N, 经度: 099-21E, 海拔: 10米

当前天气观测

该预报发布于1小时和14分钟前的22:00 UTC
风速1节,风向多变
温度 23°C
湿度 100%
气压 1012 hPa
能見度: 5000
少量云层高于2000英尺
轻雾

METAR: VTSB 262200Z VRB01KT 5000 BR FEW020 23/23 Q1012

时间: 06:14 (23:14 UTC)

预报

该预报发布于6小时和14分钟前的17:00 UTC
预报有效从26日的 18点(UTC)到 27日的 18点(UTC)
风速节,风向
能見度: 8000
少量云层高于2000英尺
成为
从 27日的 04点(UTC)到 27日的 06点(UTC)
风速15节,风向东北
成为
从 27日的 13点(UTC)到 27日的 15点(UTC)
风速2节,风向多变

TAF: VTSB 261700Z 2618/2718 00000KT 8000 FEW020 BECMG 2704/2706 04015KT BECMG 2713/2715 VRB02KT

超过4000个机场的气象观测和天气预报(METAR&TAF报告)。

可查询的气象台以黄色和红色小点在地图上表示。

将鼠标移到小点上方,可查看气象台名称。

然后点击查看天气观测和预报。

如需切换地图:点击带黑十字的绿色按钮放大地图;点击带横线的绿色按钮缩小地图;或者点击绿色箭头查看邻近地区的地图。


METAR-TAF: